createdAt,value
2018-07-11T00:00:32.927Z,17.13
2018-07-11T00:05:36.497Z,15.33
2018-07-11T00:10:40.006Z,17.33
2018-07-11T00:15:43.611Z,17.47
2018-07-11T00:20:47.614Z,19.20
2018-07-11T00:25:51.728Z,21.00
2018-07-11T00:30:55.857Z,16.87
2018-07-11T00:35:59.546Z,16.00
2018-07-11T00:41:03.509Z,17.57
2018-07-11T00:46:07.152Z,17.93
2018-07-11T00:51:11.301Z,19.57
2018-07-11T00:56:14.933Z,16.17
2018-07-11T01:01:18.514Z,18.07
2018-07-11T01:06:22.265Z,17.37
2018-07-11T01:11:26.449Z,18.23
2018-07-11T01:16:31.384Z,18.60
2018-07-11T01:21:35.709Z,21.03
2018-07-11T01:26:40.661Z,18.03
2018-07-11T01:31:44.161Z,21.20
2018-07-11T01:36:47.727Z,19.37
2018-07-11T01:41:52.208Z,18.37
2018-07-11T01:46:55.933Z,23.03
2018-07-11T01:52:10.676Z,17.53
2018-07-11T01:57:20.641Z,23.17
2018-07-11T02:02:26.187Z,17.30
2018-07-11T02:07:30.295Z,17.73
2018-07-11T02:12:34.021Z,19.80
2018-07-11T02:17:39.306Z,20.37
2018-07-11T02:22:43.386Z,21.37
2018-07-11T02:27:47.172Z,21.27
2018-07-11T02:32:50.829Z,21.10
2018-07-11T02:37:55.160Z,22.57
2018-07-11T02:42:58.707Z,21.53
2018-07-11T02:48:02.910Z,22.23
2018-07-11T02:53:06.865Z,21.27
2018-07-11T02:58:11.124Z,22.10
2018-07-11T03:03:15.185Z,20.47
2018-07-11T03:08:19.149Z,21.67
2018-07-11T03:13:22.712Z,19.03
2018-07-11T03:18:26.361Z,17.87
2018-07-11T03:23:30.001Z,18.77
2018-07-11T03:28:34.482Z,20.93
2018-07-11T03:33:38.050Z,20.60
2018-07-11T03:38:41.640Z,20.73
2018-07-11T03:43:46.194Z,18.93
2018-07-11T03:48:49.796Z,22.30
2018-07-11T03:53:53.413Z,19.90
2018-07-11T03:58:56.920Z,21.20
2018-07-11T04:04:00.611Z,18.63
2018-07-11T04:09:05.245Z,18.17
2018-07-11T04:14:08.828Z,21.40
2018-07-11T04:19:12.499Z,18.37
2018-07-11T04:24:17.200Z,19.30
2018-07-11T04:29:20.786Z,15.33
2018-07-11T04:34:25.598Z,19.30
2018-07-11T04:39:29.653Z,17.57
2018-07-11T04:44:33.897Z,18.00
2018-07-11T04:49:37.760Z,17.77
2018-07-11T04:54:41.406Z,17.03
2018-07-11T04:59:45.827Z,16.00
2018-07-11T05:04:49.472Z,14.70
2018-07-11T05:09:52.914Z,15.47
2018-07-11T05:14:56.469Z,14.47
2018-07-11T05:19:59.971Z,13.57
2018-07-11T05:25:03.670Z,16.73
2018-07-11T05:30:07.375Z,15.83
2018-07-11T05:35:11.183Z,15.77
2018-07-11T05:40:14.844Z,15.00
2018-07-11T05:45:18.894Z,14.87
2018-07-11T05:50:22.923Z,15.33
2018-07-11T05:55:27.484Z,15.07
2018-07-11T06:00:30.996Z,14.83
2018-07-11T06:05:34.580Z,17.13
2018-07-11T06:10:38.477Z,14.10
2018-07-11T06:15:42.813Z,13.40
2018-07-11T06:20:46.360Z,15.17
2018-07-11T06:25:49.985Z,14.20
2018-07-11T06:30:53.484Z,17.63
2018-07-11T06:35:57.192Z,15.57
2018-07-11T06:41:00.763Z,16.40
2018-07-11T06:46:04.448Z,12.57
2018-07-11T06:51:08.587Z,12.90
2018-07-11T06:56:13.399Z,13.17
2018-07-11T07:01:17.191Z,15.47
2018-07-11T07:06:20.901Z,15.87
2018-07-11T07:11:24.976Z,12.67
2018-07-11T07:16:28.612Z,15.47
2018-07-11T07:21:32.171Z,16.27
2018-07-11T07:26:35.958Z,14.03
2018-07-11T07:31:43.060Z,13.03
2018-07-11T07:36:46.732Z,13.07
2018-07-11T07:41:51.090Z,15.60
2018-07-11T07:47:01.654Z,13.83
2018-07-11T07:52:06.407Z,12.80
2018-07-11T07:57:10.749Z,13.73
2018-07-11T08:02:14.306Z,12.20
2018-07-11T08:07:18.257Z,13.40
2018-07-11T08:12:21.852Z,14.73
2018-07-11T08:17:25.531Z,14.67
2018-07-11T08:23:42.638Z,11.13
2018-07-11T08:31:06.417Z,10.83
2018-07-11T08:36:27.154Z,13.60
2018-07-11T08:45:56.768Z,12.77
2018-07-11T08:51:12.497Z,13.90
2018-07-11T08:57:34.020Z,13.90
2018-07-11T09:03:00.615Z,13.37
2018-07-11T09:08:45.388Z,14.60
2018-07-11T09:14:34.553Z,13.53
2018-07-11T09:19:53.101Z,11.80
2018-07-11T09:24:56.641Z,11.13
2018-07-11T09:30:00.356Z,10.97
2018-07-11T09:35:04.012Z,18.30
2018-07-11T09:40:07.639Z,12.67
2018-07-11T09:45:11.237Z,17.43
2018-07-11T09:50:15.384Z,11.17
2018-07-11T09:55:18.965Z,12.73
2018-07-11T10:00:33.561Z,12.23
2018-07-11T10:05:37.147Z,16.13
2018-07-11T10:10:40.685Z,11.87
2018-07-11T10:15:45.345Z,12.80
2018-07-11T10:20:48.922Z,13.73
2018-07-11T10:25:52.809Z,14.33
2018-07-11T10:30:56.707Z,11.90
2018-07-11T10:36:01.008Z,11.73
2018-07-11T10:41:05.506Z,13.07
2018-07-11T10:46:09.139Z,20.60
2018-07-11T10:51:12.703Z,17.37
2018-07-11T10:56:16.348Z,23.30
2018-07-11T11:01:19.913Z,14.20
2018-07-11T11:06:23.484Z,19.97
2018-07-11T11:11:27.484Z,16.73
2018-07-11T11:16:31.132Z,17.57
2018-07-11T11:21:34.917Z,20.20
2018-07-11T11:26:38.601Z,21.07
2018-07-11T11:31:42.265Z,18.67
2018-07-11T11:36:45.866Z,22.83
2018-07-11T11:41:49.853Z,18.37
2018-07-11T11:46:57.417Z,18.30
2018-07-11T11:52:01.015Z,18.53
2018-07-11T11:57:04.849Z,17.27
2018-07-11T12:02:08.360Z,18.50
2018-07-11T12:07:11.967Z,16.10
2018-07-11T12:12:15.643Z,16.70
2018-07-11T12:17:19.226Z,17.63
2018-07-11T12:22:24.819Z,18.17
2018-07-11T12:27:28.561Z,17.63
2018-07-11T12:32:32.481Z,18.40
2018-07-11T12:37:36.320Z,15.00
2018-07-11T12:42:39.941Z,15.40
2018-07-11T12:47:50.867Z,18.17
2018-07-11T12:52:54.405Z,19.07
2018-07-11T12:57:59.021Z,19.20
2018-07-11T13:03:02.642Z,17.37
2018-07-11T13:08:06.510Z,20.77
2018-07-11T13:13:12.981Z,19.10
2018-07-11T13:18:16.586Z,17.70
2018-07-11T13:23:20.081Z,19.70
2018-07-11T13:28:23.717Z,17.50
2018-07-11T13:33:27.429Z,20.70
2018-07-11T13:38:31.251Z,23.47
2018-07-11T13:43:34.902Z,19.93
2018-07-11T13:48:38.554Z,16.33
2018-07-11T13:53:42.372Z,17.33
2018-07-11T13:58:46.039Z,10.80
2018-07-11T14:03:49.628Z,11.10
2018-07-11T14:08:54.247Z,7.20
2018-07-11T14:13:57.800Z,9.60
2018-07-11T14:19:02.031Z,7.17
2018-07-11T14:24:05.579Z,7.57
2018-07-11T14:29:10.416Z,6.47
2018-07-11T14:34:14.040Z,7.83
2018-07-11T14:39:18.214Z,7.77
2018-07-11T14:44:21.993Z,9.23
2018-07-11T14:49:25.935Z,10.57
2018-07-11T14:54:29.770Z,9.90
2018-07-11T14:59:33.565Z,10.00
2018-07-11T15:04:37.060Z,9.47
2018-07-11T15:09:40.703Z,11.67
2018-07-11T15:14:44.294Z,8.40
2018-07-11T15:19:48.348Z,10.40
2018-07-11T15:24:51.879Z,10.10
2018-07-11T15:29:57.031Z,10.40
2018-07-11T15:35:00.555Z,12.50
2018-07-11T15:40:05.407Z,12.70
2018-07-11T15:45:09.060Z,12.73
2018-07-11T15:50:12.680Z,15.60
2018-07-11T15:55:16.305Z,16.97
2018-07-11T16:00:43.231Z,16.77
2018-07-11T16:05:47.857Z,16.60
2018-07-11T16:10:55.141Z,18.80
2018-07-11T16:15:59.571Z,16.70
2018-07-11T16:21:04.329Z,15.90
2018-07-11T16:26:07.905Z,14.90
2018-07-11T16:31:12.098Z,13.77
2018-07-11T16:36:16.811Z,16.13
2018-07-11T16:41:20.537Z,14.60
2018-07-11T16:46:24.117Z,15.67
2018-07-11T16:51:36.029Z,13.73
2018-07-11T16:56:39.877Z,14.43
2018-07-11T17:01:59.915Z,16.53
2018-07-11T17:07:15.698Z,16.17
2018-07-11T17:12:20.099Z,14.43
2018-07-11T17:17:25.615Z,14.00
2018-07-11T17:22:32.178Z,16.37
2018-07-11T17:27:35.867Z,14.87
2018-07-11T17:32:40.324Z,14.87
2018-07-11T17:37:43.933Z,16.77
2018-07-11T17:42:47.649Z,16.03
2018-07-11T17:50:04.490Z,14.70
2018-07-11T17:55:11.287Z,16.33
2018-07-11T18:00:33.689Z,15.47
2018-07-11T18:05:45.899Z,13.20
2018-07-11T18:10:52.868Z,14.90
2018-07-11T18:16:05.869Z,14.90
2018-07-11T18:21:21.313Z,16.57
2018-07-11T18:26:39.220Z,20.33
2018-07-11T18:31:59.030Z,18.17
2018-07-11T18:39:17.526Z,19.40
2018-07-11T18:44:40.708Z,19.50
2018-07-11T18:50:55.190Z,20.03
2018-07-11T18:56:09.771Z,20.03
2018-07-11T19:01:24.890Z,20.47
2018-07-11T19:06:42.015Z,25.23
2018-07-11T19:12:04.528Z,19.20
2018-07-11T19:17:19.878Z,20.37
2018-07-11T19:22:35.384Z,21.37
2018-07-11T19:27:47.190Z,18.13
2018-07-11T19:33:01.237Z,18.90
2018-07-11T19:38:38.627Z,19.33
2018-07-11T19:43:51.209Z,18.20
2018-07-11T19:49:05.171Z,15.37
2018-07-11T19:54:17.987Z,17.27
2018-07-11T19:59:28.905Z,15.57
2018-07-11T20:04:33.281Z,12.37
2018-07-11T20:09:36.896Z,16.63
2018-07-11T20:14:41.485Z,13.77
2018-07-11T20:19:45.185Z,16.43
2018-07-11T20:24:48.833Z,13.83
2018-07-11T20:29:53.105Z,12.63
2018-07-11T20:34:57.393Z,11.93
2018-07-11T20:40:00.939Z,13.47
2018-07-11T20:45:04.602Z,13.40
2018-07-11T20:50:09.974Z,12.83
2018-07-11T20:55:14.135Z,13.63
2018-07-11T21:00:30.315Z,13.83
2018-07-11T21:07:53.788Z,14.43
2018-07-11T21:15:11.538Z,11.90
2018-07-11T21:20:15.032Z,12.97
2018-07-11T21:25:18.781Z,14.50
2018-07-11T21:30:22.360Z,14.23
2018-07-11T21:35:26.046Z,14.03
2018-07-11T21:40:29.629Z,14.27
2018-07-11T21:45:33.485Z,14.17
2018-07-11T21:50:36.938Z,14.60
2018-07-11T21:55:40.471Z,16.10
2018-07-11T22:00:44.005Z,12.53
2018-07-11T22:05:47.680Z,11.80
2018-07-11T22:10:51.225Z,13.40
2018-07-11T22:15:54.913Z,12.07
2018-07-11T22:20:57.233Z,13.60
2018-07-11T22:25:59.781Z,11.93
2018-07-11T22:31:02.309Z,15.40
2018-07-11T22:36:04.666Z,15.00
2018-07-11T22:41:07.189Z,14.20
2018-07-11T22:46:09.508Z,16.43
2018-07-11T22:51:12.077Z,17.80
2018-07-11T22:56:14.386Z,14.03
2018-07-11T23:01:17.947Z,16.27
2018-07-11T23:06:20.249Z,16.23
2018-07-11T23:11:22.590Z,14.10
2018-07-11T23:16:24.896Z,22.07
2018-07-11T23:21:28.092Z,30.50
2018-07-11T23:26:30.422Z,22.90
2018-07-11T23:31:32.779Z,22.10
2018-07-11T23:36:35.077Z,20.30
2018-07-11T23:41:38.755Z,20.53
2018-07-11T23:46:41.071Z,19.20
2018-07-11T23:51:43.819Z,23.23
2018-07-11T23:56:46.153Z,18.77
